バルセロナ の空港の天気 - METARとTAF

バルセロナ・エル・プラット国際空港 ( LEBL / BCN ) - スペイン バルセロナ
飛行場実況気象(Metar)
観測時間01/22 10:30 CET (01/22 09:30 UTC)
風向・風速北東 11m/s
視程10km以上
天気現象
少しの雲 雲底高度 910m
全天の4割程度の雲 雲底高度 1370m
気温11℃
湿度62%
気圧1015hPa
METARLEBL 220930Z 04021KT 9999 FEW030 SCT045 11/04 Q1015 NOSIG
過去の天気等 Google飛行場航空写真 Wunderground天気予報

過去48時間のMETAR

飛行場予報(TAF)
発表時間: 1/22 06:00 CET (1/22 05:00 UTC)
予報対象時間: 22日7時 CET ~ 23日7時 CET
風向・風速北東 9m/s
視程10km以上
全天の4割程度の雲 雲底高度 760m
全天の8割程度の雲 雲底高度 1,220m
22日7時 CET ~ 22日11時 CET に一時的に
風向・風速北 6m/s
22日9時 CET ~ 22日19時 CET に一時的に
風向・風速北北東 10m/s 瞬間風速 15m/s
22日13時 CET ~ 22日23時 CET に 確率 40% で一時的に
視程4,000m
天気現象
TAF LEBL 220500Z 2206/2306 05018KT 9999 SCT025 BKN040 TX13/2212Z TN08/2207Z
TEMPO 2206/2210 36012KT
TEMPO 2208/2218 03020G30KT
PROB40 TEMPO 2212/2222 4000 RA